sensor_id;sensor_type;location;lat;lon;timestamp;temperature;humidity
21115;DHT22;10715;48.546;9.896;2023-03-14T00:01:53;8.10;99.90
21115;DHT22;10715;48.546;9.896;2023-03-14T00:04:19;8.10;99.90
21115;DHT22;10715;48.546;9.896;2023-03-14T00:06:45;8.10;99.90
21115;DHT22;10715;48.546;9.896;2023-03-14T00:09:13;8.10;99.90
21115;DHT22;10715;48.546;9.896;2023-03-14T00:11:39;8.10;99.90
21115;DHT22;10715;48.546;9.896;2023-03-14T00:14:04;8.00;99.90
21115;DHT22;10715;48.546;9.896;2023-03-14T00:16:30;8.00;99.90
21115;DHT22;10715;48.546;9.896;2023-03-14T00:18:58;8.00;99.90
21115;DHT22;10715;48.546;9.896;2023-03-14T00:21:25;8.00;99.90
21115;DHT22;10715;48.546;9.896;2023-03-14T00:23:51;8.00;99.90
21115;DHT22;10715;48.546;9.896;2023-03-14T00:26:19;8.00;99.90
21115;DHT22;10715;48.546;9.896;2023-03-14T00:28:45;8.00;99.90
21115;DHT22;10715;48.546;9.896;2023-03-14T00:31:13;8.00;99.90
21115;DHT22;10715;48.546;9.896;2023-03-14T00:33:40;8.00;99.90
21115;DHT22;10715;48.546;9.896;2023-03-14T00:36:09;8.00;99.90
21115;DHT22;10715;48.546;9.896;2023-03-14T00:38:35;7.90;99.90
21115;DHT22;10715;48.546;9.896;2023-03-14T00:41:06;7.90;99.90
21115;DHT22;10715;48.546;9.896;2023-03-14T00:43:32;7.90;99.90
21115;DHT22;10715;48.546;9.896;2023-03-14T00:45:57;7.80;99.90
21115;DHT22;10715;48.546;9.896;2023-03-14T00:48:23;7.80;99.90
21115;DHT22;10715;48.546;9.896;2023-03-14T00:50:49;7.80;99.90
21115;DHT22;10715;48.546;9.896;2023-03-14T00:53:15;7.70;99.90
21115;DHT22;10715;48.546;9.896;2023-03-14T00:55:42;7.70;99.90
21115;DHT22;10715;48.546;9.896;2023-03-14T00:58:09;7.70;99.90
21115;DHT22;10715;48.546;9.896;2023-03-14T01:00:36;7.70;99.90
21115;DHT22;10715;48.546;9.896;2023-03-14T01:03:02;7.60;99.90
21115;DHT22;10715;48.546;9.896;2023-03-14T01:05:28;7.60;99.90
21115;DHT22;10715;48.546;9.896;2023-03-14T01:07:54;7.60;99.90
21115;DHT22;10715;48.546;9.896;2023-03-14T01:10:20;7.50;99.90
21115;DHT22;10715;48.546;9.896;2023-03-14T01:12:46;7.50;99.90
21115;DHT22;10715;48.546;9.896;2023-03-14T01:15:12;7.50;99.90
21115;DHT22;10715;48.546;9.896;2023-03-14T01:17:37;7.50;99.90
21115;DHT22;10715;48.546;9.896;2023-03-14T01:20:05;7.50;99.90
21115;DHT22;10715;48.546;9.896;2023-03-14T01:22:31;7.40;99.90
21115;DHT22;10715;48.546;9.896;2023-03-14T01:24:57;7.40;99.90
21115;DHT22;10715;48.546;9.896;2023-03-14T01:27:22;7.40;99.90
21115;DHT22;10715;48.546;9.896;2023-03-14T01:29:48;7.40;99.90
21115;DHT22;10715;48.546;9.896;2023-03-14T01:32:14;7.40;99.90
21115;DHT22;10715;48.546;9.896;2023-03-14T01:34:40;7.30;99.90
21115;DHT22;10715;48.546;9.896;2023-03-14T01:37:05;7.30;99.90
21115;DHT22;10715;48.546;9.896;2023-03-14T01:42:01;7.30;99.90
21115;DHT22;10715;48.546;9.896;2023-03-14T01:44:27;7.30;99.90
21115;DHT22;10715;48.546;9.896;2023-03-14T01:46:52;7.30;99.90
21115;DHT22;10715;48.546;9.896;2023-03-14T01:49:31;7.30;99.90
21115;DHT22;10715;48.546;9.896;2023-03-14T01:52:10;7.30;99.90
21115;DHT22;10715;48.546;9.896;2023-03-14T01:54:41;7.30;99.90
21115;DHT22;10715;48.546;9.896;2023-03-14T01:57:29;7.30;99.90
21115;DHT22;10715;48.546;9.896;2023-03-14T02:00:07;7.30;99.90
21115;DHT22;10715;48.546;9.896;2023-03-14T02:02:55;7.30;99.90
21115;DHT22;10715;48.546;9.896;2023-03-14T02:05:27;7.30;99.90
21115;DHT22;10715;48.546;9.896;2023-03-14T02:07:56;7.30;99.90
21115;DHT22;10715;48.546;9.896;2023-03-14T02:10:28;7.30;99.90
21115;DHT22;10715;48.546;9.896;2023-03-14T02:12:56;7.20;99.90
21115;DHT22;10715;48.546;9.896;2023-03-14T02:15:25;7.20;99.90
21115;DHT22;10715;48.546;9.896;2023-03-14T02:17:51;7.20;99.90
21115;DHT22;10715;48.546;9.896;2023-03-14T02:23:24;7.20;99.90
21115;DHT22;10715;48.546;9.896;2023-03-14T02:26:06;7.20;99.90
21115;DHT22;10715;48.546;9.896;2023-03-14T02:28:34;7.20;99.90
21115;DHT22;10715;48.546;9.896;2023-03-14T02:31:00;7.20;99.90
21115;DHT22;10715;48.546;9.896;2023-03-14T02:33:26;7.20;99.90
21115;DHT22;10715;48.546;9.896;2023-03-14T02:35:59;7.20;99.90
21115;DHT22;10715;48.546;9.896;2023-03-14T02:38:47;7.20;99.90
21115;DHT22;10715;48.546;9.896;2023-03-14T02:41:11;7.20;99.90
21115;DHT22;10715;48.546;9.896;2023-03-14T02:43:37;7.10;99.90
21115;DHT22;10715;48.546;9.896;2023-03-14T02:46:04;7.10;99.90
21115;DHT22;10715;48.546;9.896;2023-03-14T02:48:41;7.10;99.90
21115;DHT22;10715;48.546;9.896;2023-03-14T02:51:09;7.20;99.90
21115;DHT22;10715;48.546;9.896;2023-03-14T02:53:36;7.10;99.90
21115;DHT22;10715;48.546;9.896;2023-03-14T02:56:03;7.10;99.90
21115;DHT22;10715;48.546;9.896;2023-03-14T02:58:29;7.10;99.90
21115;DHT22;10715;48.546;9.896;2023-03-14T03:00:55;7.10;99.90
21115;DHT22;10715;48.546;9.896;2023-03-14T03:03:21;7.10;99.90
21115;DHT22;10715;48.546;9.896;2023-03-14T03:05:51;7.10;99.90
21115;DHT22;10715;48.546;9.896;2023-03-14T03:08:22;7.10;99.90
21115;DHT22;10715;48.546;9.896;2023-03-14T03:10:48;7.10;99.90
21115;DHT22;10715;48.546;9.896;2023-03-14T03:13:14;7.10;99.90
21115;DHT22;10715;48.546;9.896;2023-03-14T03:15:40;7.10;99.90
21115;DHT22;10715;48.546;9.896;2023-03-14T03:18:06;7.10;99.90
21115;DHT22;10715;48.546;9.896;2023-03-14T03:20:32;7.10;99.90
21115;DHT22;10715;48.546;9.896;2023-03-14T03:22:59;7.10;99.90
21115;DHT22;10715;48.546;9.896;2023-03-14T03:25:25;7.10;99.90
21115;DHT22;10715;48.546;9.896;2023-03-14T03:27:50;7.10;99.90
21115;DHT22;10715;48.546;9.896;2023-03-14T03:30:16;7.00;99.90
21115;DHT22;10715;48.546;9.896;2023-03-14T03:32:42;7.00;99.90
21115;DHT22;10715;48.546;9.896;2023-03-14T03:35:08;7.00;99.90
21115;DHT22;10715;48.546;9.896;2023-03-14T03:37:35;7.00;99.90
21115;DHT22;10715;48.546;9.896;2023-03-14T03:40:01;7.10;99.90
21115;DHT22;10715;48.546;9.896;2023-03-14T03:42:28;7.10;99.90
21115;DHT22;10715;48.546;9.896;2023-03-14T03:44:55;7.00;99.90
21115;DHT22;10715;48.546;9.896;2023-03-14T03:47:20;7.00;99.90
21115;DHT22;10715;48.546;9.896;2023-03-14T03:49:46;7.00;99.90
21115;DHT22;10715;48.546;9.896;2023-03-14T03:52:12;7.00;99.90
21115;DHT22;10715;48.546;9.896;2023-03-14T03:54:37;7.00;99.90
21115;DHT22;10715;48.546;9.896;2023-03-14T03:57:03;7.00;99.90
21115;DHT22;10715;48.546;9.896;2023-03-14T03:59:29;7.00;99.90
21115;DHT22;10715;48.546;9.896;2023-03-14T04:01:54;7.00;99.90
21115;DHT22;10715;48.546;9.896;2023-03-14T04:04:20;7.00;99.90
21115;DHT22;10715;48.546;9.896;2023-03-14T04:06:46;7.00;99.90
21115;DHT22;10715;48.546;9.896;2023-03-14T04:09:12;7.00;99.90
21115;DHT22;10715;48.546;9.896;2023-03-14T04:11:38;7.00;99.90
21115;DHT22;10715;48.546;9.896;2023-03-14T04:14:04;7.00;99.90
21115;DHT22;10715;48.546;9.896;2023-03-14T04:16:30;7.00;99.90
21115;DHT22;10715;48.546;9.896;2023-03-14T04:18:57;7.00;99.90
21115;DHT22;10715;48.546;9.896;2023-03-14T04:21:23;7.00;99.90
21115;DHT22;10715;48.546;9.896;2023-03-14T04:23:49;7.00;99.90
21115;DHT22;10715;48.546;9.896;2023-03-14T04:26:15;7.00;99.90
21115;DHT22;10715;48.546;9.896;2023-03-14T04:28:41;7.00;99.90
21115;DHT22;10715;48.546;9.896;2023-03-14T04:31:12;6.90;99.90
21115;DHT22;10715;48.546;9.896;2023-03-14T04:33:38;6.90;99.90
21115;DHT22;10715;48.546;9.896;2023-03-14T04:36:05;6.90;99.90
21115;DHT22;10715;48.546;9.896;2023-03-14T04:38:32;6.90;99.90
21115;DHT22;10715;48.546;9.896;2023-03-14T04:40:58;6.90;99.90
21115;DHT22;10715;48.546;9.896;2023-03-14T04:43:25;6.90;99.90
21115;DHT22;10715;48.546;9.896;2023-03-14T04:45:54;6.90;99.90
21115;DHT22;10715;48.546;9.896;2023-03-14T04:48:21;6.90;99.90
21115;DHT22;10715;48.546;9.896;2023-03-14T04:50:47;6.90;99.90
21115;DHT22;10715;48.546;9.896;2023-03-14T04:53:13;6.90;99.90
21115;DHT22;10715;48.546;9.896;2023-03-14T04:55:39;6.90;99.90
21115;DHT22;10715;48.546;9.896;2023-03-14T04:58:05;6.90;99.90
21115;DHT22;10715;48.546;9.896;2023-03-14T05:00:30;6.90;99.90
21115;DHT22;10715;48.546;9.896;2023-03-14T05:02:56;6.90;99.90
21115;DHT22;10715;48.546;9.896;2023-03-14T05:05:22;6.80;99.90
21115;DHT22;10715;48.546;9.896;2023-03-14T05:07:48;6.80;99.90
21115;DHT22;10715;48.546;9.896;2023-03-14T05:10:13;6.80;99.90
21115;DHT22;10715;48.546;9.896;2023-03-14T05:12:39;6.80;99.90
21115;DHT22;10715;48.546;9.896;2023-03-14T05:15:05;6.80;99.90
21115;DHT22;10715;48.546;9.896;2023-03-14T05:17:34;6.80;99.90
21115;DHT22;10715;48.546;9.896;2023-03-14T05:20:00;6.70;99.90
21115;DHT22;10715;48.546;9.896;2023-03-14T05:22:26;6.80;99.90
21115;DHT22;10715;48.546;9.896;2023-03-14T05:24:52;6.80;99.90
21115;DHT22;10715;48.546;9.896;2023-03-14T05:27:22;6.70;99.90
21115;DHT22;10715;48.546;9.896;2023-03-14T05:29:48;6.70;99.90
21115;DHT22;10715;48.546;9.896;2023-03-14T05:32:14;6.70;99.90
21115;DHT22;10715;48.546;9.896;2023-03-14T05:34:39;6.70;99.90
21115;DHT22;10715;48.546;9.896;2023-03-14T05:37:05;6.70;99.90
21115;DHT22;10715;48.546;9.896;2023-03-14T05:39:31;6.70;99.90
21115;DHT22;10715;48.546;9.896;2023-03-14T05:41:56;6.70;99.90
21115;DHT22;10715;48.546;9.896;2023-03-14T05:44:22;6.70;99.90
21115;DHT22;10715;48.546;9.896;2023-03-14T05:46:48;6.70;99.90
21115;DHT22;10715;48.546;9.896;2023-03-14T05:49:14;6.70;99.90
21115;DHT22;10715;48.546;9.896;2023-03-14T05:51:40;6.60;99.90
21115;DHT22;10715;48.546;9.896;2023-03-14T05:54:05;6.60;99.90
21115;DHT22;10715;48.546;9.896;2023-03-14T05:56:31;6.60;99.90
21115;DHT22;10715;48.546;9.896;2023-03-14T05:58:57;6.60;99.90
21115;DHT22;10715;48.546;9.896;2023-03-14T06:01:23;6.60;99.90
21115;DHT22;10715;48.546;9.896;2023-03-14T06:03:48;6.60;99.90
21115;DHT22;10715;48.546;9.896;2023-03-14T06:06:14;6.60;99.90
21115;DHT22;10715;48.546;9.896;2023-03-14T06:08:42;6.60;99.90
21115;DHT22;10715;48.546;9.896;2023-03-14T06:11:07;6.50;99.90
21115;DHT22;10715;48.546;9.896;2023-03-14T06:13:33;6.50;99.90
21115;DHT22;10715;48.546;9.896;2023-03-14T06:15:59;6.60;99.90
21115;DHT22;10715;48.546;9.896;2023-03-14T06:18:25;6.50;99.90
21115;DHT22;10715;48.546;9.896;2023-03-14T06:20:54;6.50;99.90
21115;DHT22;10715;48.546;9.896;2023-03-14T06:23:20;6.50;99.90
21115;DHT22;10715;48.546;9.896;2023-03-14T06:25:46;6.50;99.90
21115;DHT22;10715;48.546;9.896;2023-03-14T06:28:11;6.50;99.90
21115;DHT22;10715;48.546;9.896;2023-03-14T06:30:37;6.50;99.90
21115;DHT22;10715;48.546;9.896;2023-03-14T06:33:03;6.40;99.90
21115;DHT22;10715;48.546;9.896;2023-03-14T06:35:29;6.40;99.90
21115;DHT22;10715;48.546;9.896;2023-03-14T06:37:54;6.40;99.90
21115;DHT22;10715;48.546;9.896;2023-03-14T06:40:20;6.40;99.90
21115;DHT22;10715;48.546;9.896;2023-03-14T06:42:46;6.40;99.90
21115;DHT22;10715;48.546;9.896;2023-03-14T06:45:13;6.40;99.90
21115;DHT22;10715;48.546;9.896;2023-03-14T06:47:39;6.40;99.90
21115;DHT22;10715;48.546;9.896;2023-03-14T06:50:09;6.40;99.90
21115;DHT22;10715;48.546;9.896;2023-03-14T06:52:35;6.40;99.90
21115;DHT22;10715;48.546;9.896;2023-03-14T06:55:01;6.40;99.90
21115;DHT22;10715;48.546;9.896;2023-03-14T06:57:27;6.40;99.90
21115;DHT22;10715;48.546;9.896;2023-03-14T06:59:52;6.40;99.90
21115;DHT22;10715;48.546;9.896;2023-03-14T07:02:18;6.40;99.90
21115;DHT22;10715;48.546;9.896;2023-03-14T07:04:44;6.50;99.90
21115;DHT22;10715;48.546;9.896;2023-03-14T07:07:10;6.50;99.90
21115;DHT22;10715;48.546;9.896;2023-03-14T07:09:35;6.50;99.90
21115;DHT22;10715;48.546;9.896;2023-03-14T07:12:02;6.50;99.90
21115;DHT22;10715;48.546;9.896;2023-03-14T07:14:30;6.50;99.90
21115;DHT22;10715;48.546;9.896;2023-03-14T07:16:55;6.50;99.90
21115;DHT22;10715;48.546;9.896;2023-03-14T07:19:21;6.50;99.90
21115;DHT22;10715;48.546;9.896;2023-03-14T07:21:47;6.60;99.90
21115;DHT22;10715;48.546;9.896;2023-03-14T07:24:13;6.60;99.90
21115;DHT22;10715;48.546;9.896;2023-03-14T07:26:38;6.60;99.90
21115;DHT22;10715;48.546;9.896;2023-03-14T07:29:04;6.60;99.90
21115;DHT22;10715;48.546;9.896;2023-03-14T07:31:30;6.60;99.90
21115;DHT22;10715;48.546;9.896;2023-03-14T07:33:56;6.60;99.90
21115;DHT22;10715;48.546;9.896;2023-03-14T07:36:21;6.70;99.90
21115;DHT22;10715;48.546;9.896;2023-03-14T07:38:47;6.70;99.90
21115;DHT22;10715;48.546;9.896;2023-03-14T07:41:13;6.70;99.90
21115;DHT22;10715;48.546;9.896;2023-03-14T07:43:40;6.70;99.90
21115;DHT22;10715;48.546;9.896;2023-03-14T07:46:06;6.70;99.90
21115;DHT22;10715;48.546;9.896;2023-03-14T07:48:31;6.80;99.90
21115;DHT22;10715;48.546;9.896;2023-03-14T07:50:57;6.80;99.90
21115;DHT22;10715;48.546;9.896;2023-03-14T07:53:24;6.80;99.90
21115;DHT22;10715;48.546;9.896;2023-03-14T07:55:51;6.90;99.90
21115;DHT22;10715;48.546;9.896;2023-03-14T07:58:18;6.90;99.90
21115;DHT22;10715;48.546;9.896;2023-03-14T08:00:44;6.90;99.90
21115;DHT22;10715;48.546;9.896;2023-03-14T08:03:10;6.90;99.90
21115;DHT22;10715;48.546;9.896;2023-03-14T08:05:37;7.00;99.90
21115;DHT22;10715;48.546;9.896;2023-03-14T08:08:04;7.00;99.90
21115;DHT22;10715;48.546;9.896;2023-03-14T08:10:30;7.10;99.90
21115;DHT22;10715;48.546;9.896;2023-03-14T08:12:57;7.20;99.90
21115;DHT22;10715;48.546;9.896;2023-03-14T08:15:23;7.20;99.90
21115;DHT22;10715;48.546;9.896;2023-03-14T08:17:49;7.20;99.90
21115;DHT22;10715;48.546;9.896;2023-03-14T08:20:25;7.20;99.90
21115;DHT22;10715;48.546;9.896;2023-03-14T08:22:51;7.30;99.90
21115;DHT22;10715;48.546;9.896;2023-03-14T08:25:17;7.30;99.90
21115;DHT22;10715;48.546;9.896;2023-03-14T08:27:43;7.40;99.90
21115;DHT22;10715;48.546;9.896;2023-03-14T08:30:11;7.40;99.90
21115;DHT22;10715;48.546;9.896;2023-03-14T08:32:38;7.40;99.90
21115;DHT22;10715;48.546;9.896;2023-03-14T08:35:04;7.50;99.90
21115;DHT22;10715;48.546;9.896;2023-03-14T08:37:34;7.50;99.90
21115;DHT22;10715;48.546;9.896;2023-03-14T08:40:00;7.60;99.90
21115;DHT22;10715;48.546;9.896;2023-03-14T08:42:26;7.70;99.90
21115;DHT22;10715;48.546;9.896;2023-03-14T08:44:52;7.70;99.90
21115;DHT22;10715;48.546;9.896;2023-03-14T08:47:18;7.80;99.90
21115;DHT22;10715;48.546;9.896;2023-03-14T08:49:43;7.80;99.90
21115;DHT22;10715;48.546;9.896;2023-03-14T08:52:09;7.90;99.90
21115;DHT22;10715;48.546;9.896;2023-03-14T08:54:35;8.00;99.90
21115;DHT22;10715;48.546;9.896;2023-03-14T08:57:01;8.10;99.90
21115;DHT22;10715;48.546;9.896;2023-03-14T08:59:26;8.10;99.90
21115;DHT22;10715;48.546;9.896;2023-03-14T09:01:52;8.20;99.90
21115;DHT22;10715;48.546;9.896;2023-03-14T09:04:20;8.30;99.90
21115;DHT22;10715;48.546;9.896;2023-03-14T09:06:46;8.40;99.90
21115;DHT22;10715;48.546;9.896;2023-03-14T09:09:11;8.40;99.90
21115;DHT22;10715;48.546;9.896;2023-03-14T09:11:39;8.40;99.90
21115;DHT22;10715;48.546;9.896;2023-03-14T09:14:05;8.50;99.90
21115;DHT22;10715;48.546;9.896;2023-03-14T09:16:30;8.50;99.90
21115;DHT22;10715;48.546;9.896;2023-03-14T09:18:56;8.60;99.90
21115;DHT22;10715;48.546;9.896;2023-03-14T09:21:25;8.70;99.90
21115;DHT22;10715;48.546;9.896;2023-03-14T09:23:51;8.70;99.90
21115;DHT22;10715;48.546;9.896;2023-03-14T09:26:17;8.70;99.90
21115;DHT22;10715;48.546;9.896;2023-03-14T09:28:43;8.80;99.90
21115;DHT22;10715;48.546;9.896;2023-03-14T09:31:11;8.80;99.90
21115;DHT22;10715;48.546;9.896;2023-03-14T09:33:37;8.80;99.90
21115;DHT22;10715;48.546;9.896;2023-03-14T09:36:04;8.80;99.90
21115;DHT22;10715;48.546;9.896;2023-03-14T09:38:30;8.80;99.90
21115;DHT22;10715;48.546;9.896;2023-03-14T09:40:59;8.90;99.90
21115;DHT22;10715;48.546;9.896;2023-03-14T09:43:29;8.90;99.90
21115;DHT22;10715;48.546;9.896;2023-03-14T09:45:57;9.00;99.90
21115;DHT22;10715;48.546;9.896;2023-03-14T09:48:33;9.10;99.90
21115;DHT22;10715;48.546;9.896;2023-03-14T09:51:03;9.10;99.90
21115;DHT22;10715;48.546;9.896;2023-03-14T09:53:41;9.20;99.90
21115;DHT22;10715;48.546;9.896;2023-03-14T09:56:17;9.20;99.90
21115;DHT22;10715;48.546;9.896;2023-03-14T09:59:05;9.30;99.90
21115;DHT22;10715;48.546;9.896;2023-03-14T10:01:36;9.40;99.90
21115;DHT22;10715;48.546;9.896;2023-03-14T10:04:11;9.40;99.90
21115;DHT22;10715;48.546;9.896;2023-03-14T10:06:38;9.40;99.90
21115;DHT22;10715;48.546;9.896;2023-03-14T10:09:04;9.50;99.90
21115;DHT22;10715;48.546;9.896;2023-03-14T10:11:31;9.50;99.90
21115;DHT22;10715;48.546;9.896;2023-03-14T10:14:11;9.50;99.90
21115;DHT22;10715;48.546;9.896;2023-03-14T10:16:45;9.60;99.90
21115;DHT22;10715;48.546;9.896;2023-03-14T10:19:14;9.60;99.90
21115;DHT22;10715;48.546;9.896;2023-03-14T10:21:42;9.70;99.90
21115;DHT22;10715;48.546;9.896;2023-03-14T10:24:20;9.80;99.90
21115;DHT22;10715;48.546;9.896;2023-03-14T10:26:52;10.00;99.90
21115;DHT22;10715;48.546;9.896;2023-03-14T10:29:19;10.10;99.90
21115;DHT22;10715;48.546;9.896;2023-03-14T10:34:25;10.40;99.90
21115;DHT22;10715;48.546;9.896;2023-03-14T10:37:04;10.50;99.90
21115;DHT22;10715;48.546;9.896;2023-03-14T10:39:49;10.50;99.90
21115;DHT22;10715;48.546;9.896;2023-03-14T10:44:49;10.50;99.90
21115;DHT22;10715;48.546;9.896;2023-03-14T10:47:22;10.50;99.90
21115;DHT22;10715;48.546;9.896;2023-03-14T10:49:48;10.50;99.90
21115;DHT22;10715;48.546;9.896;2023-03-14T10:52:22;10.50;99.90
21115;DHT22;10715;48.546;9.896;2023-03-14T10:55:03;10.50;99.90
21115;DHT22;10715;48.546;9.896;2023-03-14T10:57:29;10.40;99.90
21115;DHT22;10715;48.546;9.896;2023-03-14T10:59:55;10.30;99.90
21115;DHT22;10715;48.546;9.896;2023-03-14T11:08:19;10.30;99.90
21115;DHT22;10715;48.546;9.896;2023-03-14T11:10:50;10.30;99.90
21115;DHT22;10715;48.546;9.896;2023-03-14T11:13:23;10.40;99.90
21115;DHT22;10715;48.546;9.896;2023-03-14T11:18:27;10.40;99.90
21115;DHT22;10715;48.546;9.896;2023-03-14T11:28:58;10.30;99.90
21115;DHT22;10715;48.546;9.896;2023-03-14T11:31:29;10.30;99.90
21115;DHT22;10715;48.546;9.896;2023-03-14T11:39:39;10.30;99.90
21115;DHT22;10715;48.546;9.896;2023-03-14T11:42:15;10.30;99.90
21115;DHT22;10715;48.546;9.896;2023-03-14T11:44:44;10.40;99.90
21115;DHT22;10715;48.546;9.896;2023-03-14T11:47:37;10.40;99.90
21115;DHT22;10715;48.546;9.896;2023-03-14T11:50:17;10.40;99.90
21115;DHT22;10715;48.546;9.896;2023-03-14T11:55:31;10.40;99.90
21115;DHT22;10715;48.546;9.896;2023-03-14T11:58:09;10.40;99.90
21115;DHT22;10715;48.546;9.896;2023-03-14T12:00:38;10.40;99.90
21115;DHT22;10715;48.546;9.896;2023-03-14T12:08:58;10.40;99.90
21115;DHT22;10715;48.546;9.896;2023-03-14T12:14:02;10.20;99.90
21115;DHT22;10715;48.546;9.896;2023-03-14T12:16:34;10.20;99.90
21115;DHT22;10715;48.546;9.896;2023-03-14T12:19:37;10.10;99.90
21115;DHT22;10715;48.546;9.896;2023-03-14T12:24:49;9.90;99.90
21115;DHT22;10715;48.546;9.896;2023-03-14T12:35:48;9.70;99.90
21115;DHT22;10715;48.546;9.896;2023-03-14T12:43:33;9.50;99.90
21115;DHT22;10715;48.546;9.896;2023-03-14T12:46:26;9.40;99.90
21115;DHT22;10715;48.546;9.896;2023-03-14T12:51:38;9.40;99.90
21115;DHT22;10715;48.546;9.896;2023-03-14T12:54:33;9.30;99.90
21115;DHT22;10715;48.546;9.896;2023-03-14T12:57:26;9.30;99.90
21115;DHT22;10715;48.546;9.896;2023-03-14T13:00:02;9.30;99.90
21115;DHT22;10715;48.546;9.896;2023-03-14T13:02:43;9.30;99.90
21115;DHT22;10715;48.546;9.896;2023-03-14T13:05:22;9.30;99.90
21115;DHT22;10715;48.546;9.896;2023-03-14T13:10:26;9.30;99.90
21115;DHT22;10715;48.546;9.896;2023-03-14T13:15:43;9.20;99.90
21115;DHT22;10715;48.546;9.896;2023-03-14T13:18:16;9.00;99.90
21115;DHT22;10715;48.546;9.896;2023-03-14T13:20:46;9.00;99.90
21115;DHT22;10715;48.546;9.896;2023-03-14T13:25:54;8.80;99.90
21115;DHT22;10715;48.546;9.896;2023-03-14T13:28:21;8.80;99.90
21115;DHT22;10715;48.546;9.896;2023-03-14T13:30:48;8.70;99.90
21115;DHT22;10715;48.546;9.896;2023-03-14T13:33:19;8.70;99.90
21115;DHT22;10715;48.546;9.896;2023-03-14T13:35:47;8.70;99.90
21115;DHT22;10715;48.546;9.896;2023-03-14T13:38:20;8.70;99.90
21115;DHT22;10715;48.546;9.896;2023-03-14T13:40:47;8.70;99.90
21115;DHT22;10715;48.546;9.896;2023-03-14T13:43:25;8.70;99.90
21115;DHT22;10715;48.546;9.896;2023-03-14T13:45:54;8.60;99.90
21115;DHT22;10715;48.546;9.896;2023-03-14T13:48:21;8.60;99.90
21115;DHT22;10715;48.546;9.896;2023-03-14T13:51:07;8.60;99.90
21115;DHT22;10715;48.546;9.896;2023-03-14T13:53:49;8.60;99.90
21115;DHT22;10715;48.546;9.896;2023-03-14T13:56:16;8.60;99.90
21115;DHT22;10715;48.546;9.896;2023-03-14T13:58:42;8.50;99.90
21115;DHT22;10715;48.546;9.896;2023-03-14T14:01:24;8.50;99.90
21115;DHT22;10715;48.546;9.896;2023-03-14T14:03:52;8.50;99.90
21115;DHT22;10715;48.546;9.896;2023-03-14T14:06:34;8.50;99.90
21115;DHT22;10715;48.546;9.896;2023-03-14T14:14:25;8.40;99.90
21115;DHT22;10715;48.546;9.896;2023-03-14T14:16:52;8.30;99.90
21115;DHT22;10715;48.546;9.896;2023-03-14T14:19:19;8.20;99.90
21115;DHT22;10715;48.546;9.896;2023-03-14T14:21:46;8.00;99.90
21115;DHT22;10715;48.546;9.896;2023-03-14T14:24:16;7.90;99.90
21115;DHT22;10715;48.546;9.896;2023-03-14T14:26:50;7.70;99.90
21115;DHT22;10715;48.546;9.896;2023-03-14T14:29:32;7.70;99.90
21115;DHT22;10715;48.546;9.896;2023-03-14T14:32:11;7.50;99.90
21115;DHT22;10715;48.546;9.896;2023-03-14T14:34:44;7.50;99.90
21115;DHT22;10715;48.546;9.896;2023-03-14T14:37:28;7.40;99.90
21115;DHT22;10715;48.546;9.896;2023-03-14T14:40:00;7.50;99.90
21115;DHT22;10715;48.546;9.896;2023-03-14T14:42:32;7.40;99.90
21115;DHT22;10715;48.546;9.896;2023-03-14T14:44:58;7.40;99.90
21115;DHT22;10715;48.546;9.896;2023-03-14T14:47:27;7.40;99.90
21115;DHT22;10715;48.546;9.896;2023-03-14T14:49:54;7.40;99.90
21115;DHT22;10715;48.546;9.896;2023-03-14T14:52:30;7.40;99.90
21115;DHT22;10715;48.546;9.896;2023-03-14T14:54:59;7.40;99.90
21115;DHT22;10715;48.546;9.896;2023-03-14T14:57:36;7.30;99.90
21115;DHT22;10715;48.546;9.896;2023-03-14T15:00:20;7.20;99.90
21115;DHT22;10715;48.546;9.896;2023-03-14T15:03:10;7.20;99.90
21115;DHT22;10715;48.546;9.896;2023-03-14T15:05:33;7.20;99.90
21115;DHT22;10715;48.546;9.896;2023-03-14T15:08:01;7.10;99.90
21115;DHT22;10715;48.546;9.896;2023-03-14T15:10:27;7.10;99.90
21115;DHT22;10715;48.546;9.896;2023-03-14T15:12:53;7.00;99.90
21115;DHT22;10715;48.546;9.896;2023-03-14T15:15:19;7.00;99.90
21115;DHT22;10715;48.546;9.896;2023-03-14T15:17:45;6.90;99.90
21115;DHT22;10715;48.546;9.896;2023-03-14T15:20:15;6.90;99.90
21115;DHT22;10715;48.546;9.896;2023-03-14T15:22:42;6.90;99.90
21115;DHT22;10715;48.546;9.896;2023-03-14T15:25:08;6.80;99.90
21115;DHT22;10715;48.546;9.896;2023-03-14T15:27:36;6.80;99.90
21115;DHT22;10715;48.546;9.896;2023-03-14T15:30:02;6.80;99.90
21115;DHT22;10715;48.546;9.896;2023-03-14T15:32:28;6.80;99.90
21115;DHT22;10715;48.546;9.896;2023-03-14T15:34:57;6.80;99.90
21115;DHT22;10715;48.546;9.896;2023-03-14T15:37:23;6.70;99.90
21115;DHT22;10715;48.546;9.896;2023-03-14T15:39:49;6.70;99.90
21115;DHT22;10715;48.546;9.896;2023-03-14T15:42:14;6.60;99.90
21115;DHT22;10715;48.546;9.896;2023-03-14T15:44:40;6.60;99.90
21115;DHT22;10715;48.546;9.896;2023-03-14T15:47:07;6.50;99.90
21115;DHT22;10715;48.546;9.896;2023-03-14T15:49:33;6.50;99.90
21115;DHT22;10715;48.546;9.896;2023-03-14T15:52:00;6.50;99.90
21115;DHT22;10715;48.546;9.896;2023-03-14T15:54:25;6.40;99.90
21115;DHT22;10715;48.546;9.896;2023-03-14T15:56:57;6.40;99.90
21115;DHT22;10715;48.546;9.896;2023-03-14T15:59:23;6.40;99.90
21115;DHT22;10715;48.546;9.896;2023-03-14T16:01:49;6.30;99.90
21115;DHT22;10715;48.546;9.896;2023-03-14T16:04:15;6.30;99.90
21115;DHT22;10715;48.546;9.896;2023-03-14T16:06:41;6.30;99.90
21115;DHT22;10715;48.546;9.896;2023-03-14T16:09:09;6.30;99.90
21115;DHT22;10715;48.546;9.896;2023-03-14T16:11:35;6.30;99.90
21115;DHT22;10715;48.546;9.896;2023-03-14T16:14:00;6.30;99.90
21115;DHT22;10715;48.546;9.896;2023-03-14T16:16:26;6.30;99.90
21115;DHT22;10715;48.546;9.896;2023-03-14T16:18:52;6.30;99.90
21115;DHT22;10715;48.546;9.896;2023-03-14T16:21:19;6.40;99.90
21115;DHT22;10715;48.546;9.896;2023-03-14T16:23:45;6.30;99.90
21115;DHT22;10715;48.546;9.896;2023-03-14T16:26:17;6.40;99.90
21115;DHT22;10715;48.546;9.896;2023-03-14T16:28:43;6.40;99.90
21115;DHT22;10715;48.546;9.896;2023-03-14T16:31:11;6.30;99.90
21115;DHT22;10715;48.546;9.896;2023-03-14T16:33:38;6.30;99.90
21115;DHT22;10715;48.546;9.896;2023-03-14T16:36:06;6.30;99.90
21115;DHT22;10715;48.546;9.896;2023-03-14T16:38:36;6.30;99.90
21115;DHT22;10715;48.546;9.896;2023-03-14T16:41:20;6.30;99.90
21115;DHT22;10715;48.546;9.896;2023-03-14T16:43:47;6.30;99.90
21115;DHT22;10715;48.546;9.896;2023-03-14T16:46:19;6.20;99.90
21115;DHT22;10715;48.546;9.896;2023-03-14T16:48:46;6.20;99.90
21115;DHT22;10715;48.546;9.896;2023-03-14T16:51:13;6.20;99.90
21115;DHT22;10715;48.546;9.896;2023-03-14T16:53:40;6.20;99.90
21115;DHT22;10715;48.546;9.896;2023-03-14T16:56:06;6.10;99.90
21115;DHT22;10715;48.546;9.896;2023-03-14T16:58:34;6.10;99.90
21115;DHT22;10715;48.546;9.896;2023-03-14T17:01:04;6.10;99.90
21115;DHT22;10715;48.546;9.896;2023-03-14T17:03:38;6.00;99.90
21115;DHT22;10715;48.546;9.896;2023-03-14T17:06:04;6.00;99.90
21115;DHT22;10715;48.546;9.896;2023-03-14T17:08:31;5.90;99.90
21115;DHT22;10715;48.546;9.896;2023-03-14T17:10:56;5.90;99.90